createdAt,value
2019-01-02T00:01:20.027Z,9.28
2019-01-02T00:03:47.313Z,14.85
2019-01-02T00:06:14.685Z,10.35
2019-01-02T00:08:42.158Z,15.48
2019-01-02T00:11:09.446Z,9.80
2019-01-02T00:13:37.069Z,11.20
2019-01-02T00:16:04.349Z,7.85
2019-01-02T00:18:32.003Z,10.60
2019-01-02T00:20:59.306Z,17.23
2019-01-02T00:23:26.786Z,16.10
2019-01-02T00:25:54.074Z,13.98
2019-01-02T00:28:21.375Z,10.88
2019-01-02T00:30:48.696Z,13.18
2019-01-02T00:33:15.923Z,8.68
2019-01-02T00:35:43.217Z,9.65
2019-01-02T00:38:10.504Z,13.72
2019-01-02T00:40:37.802Z,9.00
2019-01-02T00:43:05.085Z,9.43
2019-01-02T00:45:32.380Z,9.80
2019-01-02T00:47:59.667Z,13.10
2019-01-02T00:50:27.246Z,14.73
2019-01-02T00:52:54.547Z,13.10
2019-01-02T00:55:21.824Z,12.00
2019-01-02T00:57:49.136Z,14.45
2019-01-02T01:00:18.107Z,16.73
2019-01-02T01:02:45.406Z,13.93
2019-01-02T01:05:12.679Z,10.75
2019-01-02T01:07:40.351Z,12.63
2019-01-02T01:10:09.284Z,16.45
2019-01-02T01:12:36.882Z,18.32
2019-01-02T01:15:05.428Z,13.25
2019-01-02T01:17:33.122Z,12.13
2019-01-02T01:20:00.400Z,12.55
2019-01-02T01:22:28.000Z,16.00
2019-01-02T01:24:55.296Z,16.77
2019-01-02T01:27:22.586Z,12.37
2019-01-02T01:29:49.886Z,15.25
2019-01-02T01:32:17.166Z,13.08
2019-01-02T01:34:44.788Z,17.10
2019-01-02T01:37:12.067Z,19.40
2019-01-02T01:39:39.347Z,20.43
2019-01-02T01:42:07.546Z,10.53
2019-01-02T01:44:34.831Z,15.32
2019-01-02T01:47:02.402Z,17.07
2019-01-02T01:49:29.698Z,12.23
2019-01-02T01:51:56.981Z,17.73
2019-01-02T01:54:24.264Z,15.53
2019-01-02T01:56:51.558Z,15.10
2019-01-02T01:59:19.155Z,13.53
2019-01-02T02:01:46.446Z,14.73
2019-01-02T02:04:13.734Z,13.83
2019-01-02T02:06:41.012Z,11.05
2019-01-02T02:09:08.320Z,12.15
2019-01-02T02:11:35.798Z,13.43
2019-01-02T02:14:03.077Z,15.08
2019-01-02T02:16:30.384Z,15.50
2019-01-02T02:18:57.671Z,14.33
2019-01-02T02:21:24.979Z,8.93
2019-01-02T02:23:52.652Z,17.20
2019-01-02T02:26:19.935Z,11.08
2019-01-02T02:28:47.539Z,17.00
2019-01-02T02:31:14.845Z,18.07
2019-01-02T02:33:42.443Z,12.45
2019-01-02T02:36:10.031Z,16.35
2019-01-02T02:38:37.607Z,16.27
2019-01-02T02:41:05.218Z,10.30
2019-01-02T02:43:32.701Z,21.40
2019-01-02T02:46:00.201Z,20.12
2019-01-02T02:48:27.694Z,19.10
2019-01-02T02:50:55.384Z,15.13
2019-01-02T02:53:22.972Z,15.45
2019-01-02T02:55:50.581Z,13.95
2019-01-02T02:58:18.295Z,30.20
2019-01-02T03:00:45.769Z,18.65
2019-01-02T03:03:13.374Z,15.85
2019-01-02T03:05:40.661Z,22.07
2019-01-02T03:08:07.940Z,19.25
2019-01-02T03:10:35.647Z,18.65
2019-01-02T03:13:03.331Z,15.10
2019-01-02T03:15:30.831Z,18.12
2019-01-02T03:17:58.116Z,14.60
2019-01-02T03:20:25.397Z,21.48
2019-01-02T03:22:52.713Z,12.95
2019-01-02T03:25:20.382Z,20.08
2019-01-02T03:27:48.069Z,10.60
2019-01-02T03:30:16.766Z,15.48
2019-01-02T03:32:44.555Z,16.82
2019-01-02T03:35:12.147Z,17.87
2019-01-02T03:37:39.427Z,17.65
2019-01-02T03:40:08.111Z,20.52
2019-01-02T03:42:35.387Z,16.50
2019-01-02T03:45:02.659Z,19.02
2019-01-02T03:47:29.983Z,16.42
2019-01-02T03:49:57.258Z,22.40
2019-01-02T03:52:24.542Z,11.65
2019-01-02T03:54:51.842Z,21.37
2019-01-02T03:57:19.126Z,24.80
2019-01-02T03:59:46.403Z,19.12
2019-01-02T04:02:13.708Z,20.35
2019-01-02T04:04:40.923Z,19.52
2019-01-02T04:07:08.224Z,15.18
2019-01-02T04:09:35.494Z,11.90
2019-01-02T04:12:02.694Z,16.07
2019-01-02T04:14:29.922Z,17.17
2019-01-02T04:16:57.204Z,9.70
2019-01-02T04:19:24.512Z,11.22
2019-01-02T04:21:51.810Z,19.98
2019-01-02T04:24:19.019Z,34.18
2019-01-02T04:26:46.304Z,15.85
2019-01-02T04:29:13.598Z,17.10
2019-01-02T04:31:40.807Z,17.73
2019-01-02T04:34:08.083Z,13.43
2019-01-02T04:36:35.395Z,25.15
2019-01-02T04:39:02.890Z,13.72
2019-01-02T04:41:30.090Z,16.93
2019-01-02T04:43:57.301Z,15.15
2019-01-02T04:46:24.594Z,19.32
2019-01-02T04:48:51.800Z,13.78
2019-01-02T04:51:19.099Z,14.55
2019-01-02T04:53:46.383Z,23.27
2019-01-02T04:56:13.748Z,20.23
2019-01-02T04:58:41.019Z,17.57
2019-01-02T05:01:08.302Z,16.23
2019-01-02T05:03:35.525Z,22.62
2019-01-02T05:06:02.729Z,14.70
2019-01-02T05:08:30.041Z,25.25
2019-01-02T05:10:57.332Z,22.77
2019-01-02T05:13:24.604Z,19.67
2019-01-02T05:15:51.909Z,19.82
2019-01-02T05:18:19.207Z,22.60
2019-01-02T05:20:46.482Z,19.05
2019-01-02T05:23:13.750Z,18.25
2019-01-02T05:25:40.975Z,12.20
2019-01-02T05:28:08.179Z,22.37
2019-01-02T05:30:35.479Z,19.00
2019-01-02T05:33:02.681Z,22.17
2019-01-02T05:35:29.960Z,16.60
2019-01-02T05:37:57.262Z,21.45
2019-01-02T05:40:24.476Z,29.23
2019-01-02T05:42:51.749Z,19.02
2019-01-02T05:45:19.163Z,17.62
2019-01-02T05:47:46.439Z,19.32
2019-01-02T05:50:13.749Z,23.32
2019-01-02T05:52:41.028Z,13.95
2019-01-02T05:55:08.315Z,14.55
2019-01-02T05:57:35.612Z,19.15
2019-01-02T06:00:03.383Z,18.73
2019-01-02T06:02:30.690Z,14.90
2019-01-02T06:04:57.930Z,17.15
2019-01-02T06:07:25.211Z,25.43
2019-01-02T06:09:52.498Z,22.90
2019-01-02T06:12:19.803Z,24.40
2019-01-02T06:14:47.088Z,20.60
2019-01-02T06:17:14.372Z,24.23
2019-01-02T06:19:41.685Z,30.25
2019-01-02T06:22:08.982Z,17.27
2019-01-02T06:24:36.223Z,21.93
2019-01-02T06:27:03.506Z,21.55
2019-01-02T06:29:30.781Z,18.87
2019-01-02T06:31:58.078Z,18.62
2019-01-02T06:34:25.390Z,20.77
2019-01-02T06:36:52.671Z,18.92
2019-01-02T06:39:19.954Z,21.60
2019-01-02T06:41:47.258Z,16.82
2019-01-02T06:44:14.534Z,22.98
2019-01-02T06:46:41.776Z,21.73
2019-01-02T06:49:09.064Z,22.98
2019-01-02T06:51:36.352Z,21.17
2019-01-02T06:54:03.650Z,17.98
2019-01-02T06:56:30.854Z,22.77
2019-01-02T06:58:58.074Z,18.77
2019-01-02T07:01:25.547Z,20.40
2019-01-02T07:03:52.818Z,22.73
2019-01-02T07:06:20.035Z,22.20
2019-01-02T07:08:47.368Z,41.75
2019-01-02T07:11:14.652Z,24.43
2019-01-02T07:13:41.922Z,19.17
2019-01-02T07:16:09.180Z,14.95
2019-01-02T07:18:36.465Z,21.27
2019-01-02T07:21:03.746Z,18.70
2019-01-02T07:23:31.057Z,23.50
2019-01-02T07:25:58.340Z,27.82
2019-01-02T07:28:25.652Z,16.57
2019-01-02T07:30:52.993Z,18.27
2019-01-02T07:33:21.721Z,24.23
2019-01-02T07:35:53.575Z,18.62
2019-01-02T07:38:22.479Z,16.07
2019-01-02T07:40:54.149Z,15.28
2019-01-02T07:43:22.982Z,19.25
2019-01-02T07:45:57.611Z,27.00
2019-01-02T07:48:32.606Z,15.38
2019-01-02T07:51:18.057Z,16.42
2019-01-02T07:53:55.813Z,15.50
2019-01-02T07:56:33.978Z,16.57
2019-01-02T07:59:14.964Z,15.83
2019-01-02T08:01:49.645Z,16.60
2019-01-02T08:04:27.431Z,26.68
2019-01-02T08:06:56.298Z,17.82
2019-01-02T08:09:25.236Z,22.42
2019-01-02T08:12:05.997Z,22.25
2019-01-02T08:14:37.792Z,16.60
2019-01-02T08:17:12.688Z,18.37
2019-01-02T08:19:58.412Z,19.98
2019-01-02T08:22:27.317Z,21.55
2019-01-02T08:24:56.147Z,20.10
2019-01-02T08:27:25.014Z,18.25
2019-01-02T08:29:53.920Z,23.20
2019-01-02T08:32:31.842Z,19.52
2019-01-02T08:35:09.944Z,18.48
2019-01-02T08:37:38.885Z,18.20
2019-01-02T08:40:10.451Z,22.73
2019-01-02T08:42:55.995Z,20.82
2019-01-02T08:45:31.007Z,12.75
2019-01-02T08:48:02.746Z,18.55
2019-01-02T08:50:43.691Z,18.30
2019-01-02T08:53:29.236Z,17.25
2019-01-02T08:55:58.163Z,19.77
2019-01-02T08:58:39.351Z,15.32
2019-01-02T09:01:14.035Z,16.48
2019-01-02T09:03:59.667Z,13.75
2019-01-02T09:06:45.415Z,21.25
2019-01-02T09:09:31.091Z,31.25
2019-01-02T09:12:02.743Z,17.80
2019-01-02T09:14:46.765Z,23.50
2019-01-02T09:17:21.667Z,16.40
2019-01-02T09:20:07.086Z,18.95
2019-01-02T09:22:38.707Z,22.55
2019-01-02T09:25:10.306Z,15.03
2019-01-02T09:27:42.134Z,22.82
2019-01-02T09:30:27.832Z,16.20
2019-01-02T09:32:59.655Z,18.48
2019-01-02T09:35:35.277Z,22.58
2019-01-02T09:38:10.212Z,14.18
2019-01-02T09:40:39.174Z,22.35
2019-01-02T09:43:08.065Z,20.92
2019-01-02T09:45:52.114Z,13.88
2019-01-02T09:48:27.029Z,21.80
2019-01-02T09:50:55.945Z,17.60
2019-01-02T09:53:30.892Z,17.30
2019-01-02T09:56:02.978Z,20.05
2019-01-02T09:58:34.814Z,20.40
2019-01-02T10:01:20.131Z,22.93
2019-01-02T10:04:05.663Z,18.67
2019-01-02T10:06:51.060Z,18.10
2019-01-02T10:09:25.966Z,17.07
2019-01-02T10:11:54.874Z,19.45
2019-01-02T10:14:29.519Z,21.25
2019-01-02T10:16:58.436Z,22.10
2019-01-02T10:19:27.369Z,23.87
2019-01-02T10:21:58.898Z,23.12
2019-01-02T10:24:30.759Z,27.98
2019-01-02T10:27:05.805Z,16.62
2019-01-02T10:29:34.736Z,17.37
2019-01-02T10:32:09.616Z,18.82
2019-01-02T10:34:38.521Z,20.15
2019-01-02T10:37:07.389Z,18.00
2019-01-02T10:39:51.560Z,17.70
2019-01-02T10:42:23.672Z,18.23
2019-01-02T10:45:09.063Z,13.85
2019-01-02T10:47:40.913Z,16.45
2019-01-02T10:50:09.824Z,15.98
2019-01-02T10:52:47.641Z,11.22
2019-01-02T10:55:16.546Z,15.63
2019-01-02T10:57:45.457Z,12.28
2019-01-02T11:00:20.588Z,18.27
2019-01-02T11:02:52.160Z,16.32
2019-01-02T11:05:24.086Z,17.20
2019-01-02T11:08:13.472Z,11.12
2019-01-02T11:10:56.495Z,13.38
2019-01-02T11:13:28.952Z,17.95
2019-01-02T11:16:00.664Z,12.53
2019-01-02T11:18:46.325Z,21.40
2019-01-02T11:21:18.252Z,22.70
2019-01-02T11:23:47.225Z,14.47
2019-01-02T11:26:16.165Z,19.17
2019-01-02T11:28:51.108Z,9.53
2019-01-02T11:31:20.034Z,16.20
2019-01-02T11:33:48.862Z,11.90
2019-01-02T11:36:26.730Z,10.35
2019-01-02T11:39:14.279Z,18.87
2019-01-02T11:41:43.184Z,20.48
2019-01-02T11:44:30.357Z,12.93
2019-01-02T11:46:57.651Z,20.77
2019-01-02T11:49:24.943Z,9.50
2019-01-02T11:51:52.256Z,5.78
2019-01-02T11:54:19.514Z,9.40
2019-01-02T11:56:46.786Z,11.57
2019-01-02T11:59:14.023Z,20.43
2019-01-02T12:01:41.333Z,22.87
2019-01-02T12:04:08.602Z,38.35
2019-01-02T12:06:35.919Z,18.62
2019-01-02T12:09:04.834Z,28.07
2019-01-02T12:11:32.114Z,10.90
2019-01-02T12:13:59.349Z,17.48
2019-01-02T12:16:26.628Z,16.87
2019-01-02T12:18:53.936Z,19.73
2019-01-02T12:21:21.218Z,18.20
2019-01-02T12:23:48.512Z,18.27
2019-01-02T12:26:15.819Z,19.10
2019-01-02T12:28:43.104Z,11.90
2019-01-02T12:31:10.396Z,19.65
2019-01-02T12:33:37.716Z,10.68
2019-01-02T12:36:05.018Z,10.78
2019-01-02T12:38:32.227Z,15.48
2019-01-02T12:40:59.518Z,20.62
2019-01-02T12:43:26.826Z,23.45
2019-01-02T12:45:54.112Z,20.32
2019-01-02T12:48:21.397Z,19.27
2019-01-02T12:50:48.720Z,19.62
2019-01-02T12:53:16.012Z,15.08
2019-01-02T12:55:43.299Z,17.65
2019-01-02T12:58:10.603Z,12.65
2019-01-02T13:00:39.538Z,16.93
2019-01-02T13:03:08.445Z,20.80
2019-01-02T13:05:46.213Z,17.98
2019-01-02T13:08:27.043Z,18.32
2019-01-02T13:10:56.009Z,13.43
2019-01-02T13:13:37.020Z,12.05
2019-01-02T13:16:05.925Z,12.23
2019-01-02T13:18:34.846Z,13.08
2019-01-02T13:21:03.791Z,8.10
2019-01-02T13:23:32.701Z,10.82
2019-01-02T13:26:10.812Z,7.80
2019-01-02T13:28:39.729Z,11.93
2019-01-02T13:31:14.424Z,12.53
2019-01-02T13:33:43.351Z,10.03
2019-01-02T13:36:18.324Z,16.60
2019-01-02T13:38:47.255Z,16.07
2019-01-02T13:41:28.043Z,26.85
2019-01-02T13:44:05.765Z,45.05
2019-01-02T13:46:34.674Z,26.82
2019-01-02T13:49:06.411Z,8.28
2019-01-02T13:51:33.740Z,27.80
2019-01-02T13:54:01.031Z,10.00
2019-01-02T13:56:28.305Z,7.87
2019-01-02T13:58:55.612Z,11.78
2019-01-02T14:01:22.896Z,15.98
2019-01-02T14:03:50.180Z,13.15
2019-01-02T14:06:17.486Z,10.85
2019-01-02T14:08:44.756Z,9.93
2019-01-02T14:11:12.050Z,10.13
2019-01-02T14:13:39.371Z,13.60
2019-01-02T14:16:06.643Z,14.33
2019-01-02T14:18:33.922Z,9.08
2019-01-02T14:21:01.151Z,7.92
2019-01-02T14:23:28.443Z,8.00
2019-01-02T14:25:55.718Z,9.15
2019-01-02T14:28:22.999Z,8.93
2019-01-02T14:30:50.924Z,8.20
2019-01-02T14:33:18.289Z,8.30
2019-01-02T14:35:45.607Z,7.50
2019-01-02T14:38:12.891Z,8.15
2019-01-02T14:40:40.159Z,8.25
2019-01-02T14:43:07.476Z,8.15
2019-01-02T14:45:34.775Z,7.80
2019-01-02T14:48:02.079Z,9.35
2019-01-02T14:50:29.364Z,8.50
2019-01-02T14:52:56.701Z,9.05
2019-01-02T14:55:23.946Z,7.30
2019-01-02T14:57:51.219Z,10.20
2019-01-02T15:00:18.456Z,8.53
2019-01-02T15:02:45.726Z,8.70
2019-01-02T15:05:12.931Z,7.90
2019-01-02T15:07:40.235Z,8.40
2019-01-02T15:10:09.092Z,8.35
2019-01-02T15:12:36.375Z,8.03
2019-01-02T15:15:04.351Z,11.10
2019-01-02T15:17:31.623Z,7.67
2019-01-02T15:19:58.975Z,7.72
2019-01-02T15:22:26.287Z,7.92
2019-01-02T15:24:53.566Z,8.80
2019-01-02T15:27:20.851Z,8.53
2019-01-02T15:29:48.156Z,9.25
2019-01-02T15:32:15.431Z,10.05
2019-01-02T15:34:42.697Z,9.45
2019-01-02T15:37:09.937Z,9.43
2019-01-02T15:39:37.255Z,8.60
2019-01-02T15:42:04.525Z,9.15
2019-01-02T15:44:31.724Z,9.68
2019-01-02T15:46:59.028Z,10.15
2019-01-02T15:49:26.299Z,9.18
2019-01-02T15:51:53.616Z,10.30
2019-01-02T15:54:20.909Z,8.98
2019-01-02T15:56:48.301Z,9.53
2019-01-02T15:59:16.096Z,9.53
2019-01-02T16:01:43.394Z,10.25
2019-01-02T16:04:10.687Z,10.70
2019-01-02T16:06:37.961Z,9.73
2019-01-02T16:09:06.032Z,9.88
2019-01-02T16:11:33.309Z,9.25
2019-01-02T16:14:00.702Z,10.60
2019-01-02T16:16:27.983Z,9.73
2019-01-02T16:18:55.190Z,9.23
2019-01-02T16:21:22.495Z,14.33
2019-01-02T16:23:49.791Z,9.38
2019-01-02T16:26:17.064Z,9.23
2019-01-02T16:28:44.371Z,10.48
2019-01-02T16:31:11.645Z,9.80
2019-01-02T16:33:38.947Z,9.80
2019-01-02T16:36:06.253Z,10.00
2019-01-02T16:38:33.531Z,8.50
2019-01-02T16:41:00.794Z,9.98
2019-01-02T16:43:28.104Z,8.53
2019-01-02T16:45:55.374Z,9.25
2019-01-02T16:48:22.664Z,9.35
2019-01-02T16:50:49.963Z,10.65
2019-01-02T16:53:17.236Z,11.15
2019-01-02T16:55:44.542Z,9.50
2019-01-02T16:58:11.745Z,9.50
2019-01-02T17:00:39.034Z,9.65
2019-01-02T17:03:06.326Z,9.88
2019-01-02T17:05:33.522Z,10.13
2019-01-02T17:08:00.750Z,11.18
2019-01-02T17:10:28.135Z,10.25
2019-01-02T17:12:55.411Z,10.30
2019-01-02T17:15:22.707Z,10.60
2019-01-02T17:17:50.281Z,9.60
2019-01-02T17:20:17.688Z,9.75
2019-01-02T17:22:44.959Z,9.85
2019-01-02T17:25:12.235Z,9.33
2019-01-02T17:27:39.530Z,8.53
2019-01-02T17:30:07.598Z,8.83
2019-01-02T17:32:34.875Z,8.85
2019-01-02T17:35:02.175Z,17.90
2019-01-02T17:37:29.455Z,9.35
2019-01-02T17:39:56.650Z,10.40
2019-01-02T17:42:23.884Z,8.33
2019-01-02T17:44:51.150Z,8.83
2019-01-02T17:47:18.434Z,9.30
2019-01-02T17:49:45.731Z,8.90
2019-01-02T17:52:13.027Z,9.60
2019-01-02T17:54:40.294Z,9.85
2019-01-02T17:57:07.490Z,8.60
2019-01-02T17:59:34.793Z,10.55
2019-01-02T18:02:02.062Z,8.30
2019-01-02T18:04:29.331Z,9.35
2019-01-02T18:06:56.631Z,9.58
2019-01-02T18:09:23.903Z,9.70
2019-01-02T18:11:51.198Z,8.50
2019-01-02T18:14:18.405Z,9.80
2019-01-02T18:16:45.675Z,10.23
2019-01-02T18:19:12.978Z,8.85
2019-01-02T18:21:40.250Z,9.30
2019-01-02T18:24:07.552Z,9.20
2019-01-02T18:26:34.815Z,9.25
2019-01-02T18:29:02.105Z,8.60
2019-01-02T18:31:29.311Z,9.10
2019-01-02T18:33:56.607Z,9.93
2019-01-02T18:36:23.879Z,10.95
2019-01-02T18:38:51.076Z,9.40
2019-01-02T18:41:18.373Z,9.45
2019-01-02T18:43:45.659Z,9.25
2019-01-02T18:46:12.932Z,10.28
2019-01-02T18:48:40.308Z,10.08
2019-01-02T18:51:07.588Z,9.80
2019-01-02T18:53:34.859Z,9.43
2019-01-02T18:56:02.150Z,9.78
2019-01-02T18:58:29.414Z,9.25
2019-01-02T19:00:56.712Z,9.83
2019-01-02T19:03:23.994Z,8.85
2019-01-02T19:05:51.611Z,10.75
2019-01-02T19:08:18.985Z,11.35
2019-01-02T19:10:46.269Z,11.40
2019-01-02T19:13:13.565Z,9.60
2019-01-02T19:15:40.933Z,10.65
2019-01-02T19:18:08.210Z,9.70
2019-01-02T19:20:35.519Z,9.78
2019-01-02T19:23:02.791Z,9.30
2019-01-02T19:25:30.069Z,9.63
2019-01-02T19:27:58.292Z,9.98
2019-01-02T19:30:25.611Z,9.65
2019-01-02T19:32:52.911Z,10.45
2019-01-02T19:35:20.182Z,9.78
2019-01-02T19:37:47.471Z,10.75
2019-01-02T19:40:14.771Z,9.93
2019-01-02T19:42:42.071Z,11.00
2019-01-02T19:45:09.359Z,10.95
2019-01-02T19:47:36.692Z,11.70
2019-01-02T19:50:05.459Z,10.15
2019-01-02T19:52:32.743Z,9.83
2019-01-02T19:55:00.093Z,9.68
2019-01-02T19:57:27.519Z,11.80
2019-01-02T19:59:54.719Z,10.40
2019-01-02T20:02:22.052Z,9.48
2019-01-02T20:04:49.322Z,9.15
2019-01-02T20:07:16.640Z,13.83
2019-01-02T20:09:43.914Z,10.28
2019-01-02T20:12:11.116Z,9.50
2019-01-02T20:14:38.420Z,9.58
2019-01-02T20:17:05.695Z,10.13
2019-01-02T20:19:32.994Z,8.85
2019-01-02T20:22:00.264Z,9.58
2019-01-02T20:24:27.581Z,11.35
2019-01-02T20:26:55.546Z,9.63
2019-01-02T20:29:22.934Z,9.38
2019-01-02T20:31:50.234Z,9.45
2019-01-02T20:34:17.615Z,9.45
2019-01-02T20:36:44.905Z,9.88
2019-01-02T20:39:12.171Z,10.88
2019-01-02T20:41:39.523Z,9.88
2019-01-02T20:44:06.795Z,10.55
2019-01-02T20:46:34.075Z,9.88
2019-01-02T20:49:01.381Z,11.97
2019-01-02T20:51:28.689Z,10.03
2019-01-02T20:53:55.971Z,12.20
2019-01-02T20:56:23.279Z,12.68
2019-01-02T20:58:50.559Z,12.70
2019-01-02T21:01:17.839Z,11.30
2019-01-02T21:03:45.144Z,10.45
2019-01-02T21:06:12.427Z,10.95
2019-01-02T21:08:39.722Z,11.48
2019-01-02T21:11:07.002Z,10.40
2019-01-02T21:13:34.303Z,10.78
2019-01-02T21:16:01.579Z,10.53
2019-01-02T21:18:28.868Z,10.05
2019-01-02T21:20:56.176Z,11.45
2019-01-02T21:23:23.446Z,10.05
2019-01-02T21:25:50.646Z,10.70
2019-01-02T21:28:17.869Z,10.68
2019-01-02T21:30:45.148Z,10.25
2019-01-02T21:33:12.447Z,10.18
2019-01-02T21:35:39.755Z,10.85
2019-01-02T21:38:07.035Z,10.40
2019-01-02T21:40:34.334Z,10.63
2019-01-02T21:43:01.615Z,12.58
2019-01-02T21:45:28.923Z,14.35
2019-01-02T21:47:56.202Z,11.20
2019-01-02T21:50:23.478Z,10.53
2019-01-02T21:52:50.715Z,11.40
2019-01-02T21:55:17.987Z,11.65
2019-01-02T21:57:45.268Z,10.65
2019-01-02T22:00:12.831Z,10.43
2019-01-02T22:02:40.364Z,10.82
2019-01-02T22:05:07.927Z,10.20
2019-01-02T22:07:35.195Z,9.88
2019-01-02T22:10:02.567Z,9.70
2019-01-02T22:12:29.872Z,10.70
2019-01-02T22:14:57.162Z,9.93
2019-01-02T22:17:24.434Z,9.93
2019-01-02T22:19:51.637Z,9.00
2019-01-02T22:22:18.939Z,9.25
2019-01-02T22:24:46.211Z,9.65
2019-01-02T22:27:13.486Z,10.18
2019-01-02T22:29:40.817Z,9.78
2019-01-02T22:32:08.067Z,9.30
2019-01-02T22:34:35.351Z,13.03
2019-01-02T22:37:02.658Z,11.85
2019-01-02T22:39:29.942Z,11.12
2019-01-02T22:41:57.247Z,12.63
2019-01-02T22:44:24.528Z,12.33
2019-01-02T22:46:51.840Z,11.97
2019-01-02T22:49:19.173Z,12.25
2019-01-02T22:51:46.408Z,15.10
2019-01-02T22:54:13.722Z,11.85
2019-01-02T22:56:40.991Z,9.63
2019-01-02T22:59:08.197Z,10.25
2019-01-02T23:01:37.131Z,9.73
2019-01-02T23:04:08.775Z,8.73
2019-01-02T23:06:46.799Z,9.15
2019-01-02T23:09:24.466Z,10.58
2019-01-02T23:11:56.030Z,10.25
2019-01-02T23:14:41.457Z,13.22
2019-01-02T23:17:13.359Z,9.83
2019-01-02T23:19:58.516Z,10.58
2019-01-02T23:22:43.951Z,9.53
2019-01-02T23:25:12.876Z,10.43
2019-01-02T23:27:44.613Z,10.20
2019-01-02T23:30:19.590Z,9.60
2019-01-02T23:32:54.619Z,9.43
2019-01-02T23:35:35.526Z,10.13
2019-01-02T23:38:04.388Z,8.85
2019-01-02T23:40:45.331Z,9.85
2019-01-02T23:43:17.240Z,12.07
2019-01-02T23:45:46.163Z,10.32
2019-01-02T23:48:24.035Z,10.75
2019-01-02T23:51:02.032Z,10.48
2019-01-02T23:53:39.590Z,9.68
2019-01-02T23:56:26.810Z,9.90
2019-01-02T23:59:12.148Z,9.80
